Time;durP1;ratioP1;P1;durP2;ratioP2;P2;SDS_P1;SDS_P2;PMS_P1;PMS_P2;Temp;Humidity;BMP_temperature;BMP_pressure;BME280_temperature;BME280_humidity;BME280_pressure;Samples;Min_cycle;Max_cycle;Signal;HPM_P1;HPM_P2
2022/05/26 00:00:40;;;;;;;1.37;0.80;;;17.80;57.80;;;;;;7367821;19;20415;-78
2022/05/26 00:03:10;;;;;;;1.20;0.80;;;17.70;58.30;;;;;;7374496;19;20412;-78
2022/05/26 00:05:39;;;;;;;1.30;0.60;;;17.60;58.60;;;;;;7377027;19;20404;-79
2022/05/26 00:08:11;;;;;;;2.00;1.00;;;17.60;59.00;;;;;;7378292;19;20459;-79
2022/05/26 00:10:40;;;;;;;1.27;0.50;;;17.60;58.20;;;;;;7372682;19;20424;-79
2022/05/26 00:13:13;;;;;;;0.80;0.77;;;17.60;57.90;;;;;;7374769;19;20416;-78
2022/05/26 00:15:42;;;;;;;3.47;0.77;;;17.60;58.20;;;;;;7373294;19;20420;-80
2022/05/26 00:18:12;;;;;;;1.47;1.00;;;17.60;58.60;;;;;;7376115;19;20423;-77
2022/05/26 00:20:41;;;;;;;1.67;0.80;;;17.50;58.10;;;;;;7363097;19;20423;-79
2022/05/26 00:23:11;;;;;;;1.03;0.70;;;18.00;58.80;;;;;;7351674;19;20411;-79
2022/05/26 00:25:40;;;;;;;1.67;1.30;;;17.70;58.20;;;;;;7355675;19;20397;-79
2022/05/26 00:28:15;;;;;;;2.40;0.80;;;17.70;57.90;;;;;;7368008;19;20487;-80
2022/05/26 00:30:45;;;;;;;2.90;0.90;;;17.70;58.00;;;;;;7353792;19;20437;-79
2022/05/26 00:33:15;;;;;;;1.20;1.10;;;17.80;57.70;;;;;;7356110;19;20524;-80
2022/05/26 00:35:45;;;;;;;1.37;0.90;;;17.90;57.40;;;;;;7368014;19;20850;-78
2022/05/26 00:38:16;;;;;;;1.10;0.80;;;17.80;57.50;;;;;;7352024;19;20491;-79
2022/05/26 00:40:49;;;;;;;0.90;0.70;;;17.90;57.80;;;;;;7363617;19;20404;-78
2022/05/26 00:43:25;;;;;;;1.20;1.00;;;17.80;57.70;;;;;;7376004;19;20408;-80
2022/05/26 00:45:58;;;;;;;1.00;0.57;;;17.80;57.60;;;;;;7363908;19;20419;-80
2022/05/26 00:48:39;;;;;;;1.03;0.90;;;17.80;57.40;;;;;;7361105;19;20491;-80
2022/05/26 00:51:10;;;;;;;1.10;0.80;;;17.80;57.80;;;;;;7366141;19;20419;-79
2022/05/26 00:53:45;;;;;;;1.23;0.67;;;17.70;57.70;;;;;;7373544;19;20412;-79
2022/05/26 00:56:20;;;;;;;0.70;0.70;;;17.80;57.70;;;;;;7372716;19;20880;-80
2022/05/26 00:58:57;;;;;;;1.80;0.93;;;18.00;57.50;;;;;;7369053;19;20447;-79
2022/05/26 01:01:29;;;;;;;0.93;0.60;;;17.90;57.30;;;;;;7367131;19;20411;-79
2022/05/26 01:04:02;;;;;;;1.50;1.20;;;17.80;57.80;;;;;;7362463;19;20433;-79
2022/05/26 01:06:36;;;;;;;1.10;0.70;;;17.80;57.70;;;;;;7365813;19;20966;-80
2022/05/26 01:09:09;;;;;;;1.43;0.57;;;17.90;57.90;;;;;;7371893;19;20412;-80
2022/05/26 01:11:42;;;;;;;0.70;0.60;;;17.80;58.00;;;;;;7370101;19;20380;-79
2022/05/26 01:14:19;;;;;;;1.00;0.57;;;17.80;58.20;;;;;;7369655;19;20495;-79
2022/05/26 01:16:57;;;;;;;0.63;0.63;;;17.70;58.30;;;;;;7372759;19;20758;-77
2022/05/26 01:19:46;;;;;;;1.73;1.00;;;17.70;58.90;;;;;;7371698;19;20376;-79
2022/05/26 01:22:29;;;;;;;0.80;0.70;;;17.60;59.00;;;;;;7372178;19;21056;-77
2022/05/26 01:25:21;;;;;;;0.90;0.60;;;17.50;58.90;;;;;;7366859;19;20416;-79
2022/05/26 01:28:02;;;;;;;1.67;1.10;;;17.40;59.60;;;;;;7372695;19;20408;-78
2022/05/26 01:30:45;;;;;;;1.37;1.00;;;17.50;60.20;;;;;;7371735;19;20428;-79
2022/05/26 01:33:37;;;;;;;0.67;0.60;;;17.50;60.70;;;;;;7374914;19;20384;-79
2022/05/26 01:36:23;;;;;;;0.83;0.70;;;17.40;60.80;;;;;;7372035;19;20427;-79
2022/05/26 01:39:04;;;;;;;1.27;0.67;;;17.30;60.10;;;;;;7370053;19;20400;-79
2022/05/26 01:42:05;;;;;;;0.93;0.70;;;17.30;60.30;;;;;;7373181;19;20959;-79
2022/05/26 01:44:47;;;;;;;2.33;0.80;;;17.20;60.10;;;;;;7373417;19;20439;-79
2022/05/26 01:47:25;;;;;;;2.00;1.03;;;17.30;61.00;;;;;;7360433;19;20415;-79
2022/05/26 01:50:04;;;;;;;0.97;0.50;;;17.10;60.40;;;;;;7376089;19;21010;-80
2022/05/26 01:52:40;;;;;;;1.47;0.63;;;17.10;62.00;;;;;;7366969;19;21281;-78
2022/05/26 01:55:13;;;;;;;0.83;0.80;;;17.00;60.60;;;;;;7374203;19;21024;-79
2022/05/26 01:57:50;;;;;;;2.10;0.77;;;17.10;60.00;;;;;;7372915;19;20519;-79
2022/05/26 02:00:21;;;;;;;2.47;0.90;;;17.20;60.10;;;;;;7364248;19;20836;-80
2022/05/26 02:02:58;;;;;;;1.43;0.90;;;17.10;60.00;;;;;;7373503;19;20416;-79
2022/05/26 02:05:33;;;;;;;2.10;0.60;;;17.20;59.80;;;;;;7377466;19;21226;-79
2022/05/26 02:08:08;;;;;;;0.93;0.50;;;17.20;59.50;;;;;;7385970;19;20836;-79
2022/05/26 02:10:49;;;;;;;1.67;0.50;;;17.20;59.50;;;;;;7383698;19;20808;-79
2022/05/26 02:13:28;;;;;;;1.40;0.60;;;17.10;59.30;;;;;;7383784;19;20412;-79
2022/05/26 02:16:01;;;;;;;0.80;0.60;;;17.00;59.60;;;;;;7385756;19;20364;-79
2022/05/26 02:18:36;;;;;;;1.30;0.70;;;17.10;59.50;;;;;;7385197;19;20560;-79
2022/05/26 02:21:11;;;;;;;3.53;0.90;;;17.20;59.70;;;;;;7384116;19;20399;-79
2022/05/26 02:23:50;;;;;;;1.50;0.60;;;17.20;59.70;;;;;;7384397;19;20848;-79
2022/05/26 02:26:19;;;;;;;0.90;0.60;;;17.20;60.10;;;;;;7420116;19;20396;-80
2022/05/26 02:31:33;;;;;;;1.20;0.60;;;17.10;60.40;;;;;;7410358;19;20428;-79
2022/05/26 02:34:04;;;;;;;1.90;0.60;;;17.10;59.80;;;;;;7405399;19;20404;-80
2022/05/26 02:36:39;;;;;;;1.33;0.60;;;17.10;60.10;;;;;;7399124;19;20421;-79
2022/05/26 02:39:11;;;;;;;1.20;0.70;;;17.00;59.80;;;;;;7398956;19;20412;-79
2022/05/26 02:41:41;;;;;;;3.57;0.80;;;17.00;59.90;;;;;;7374314;19;20816;-80
2022/05/26 02:44:12;;;;;;;1.37;0.60;;;16.90;60.70;;;;;;7372137;19;20424;-79
2022/05/26 02:47:24;;;;;;;0.70;0.70;;;16.90;60.60;;;;;;7367051;19;20411;-79
2022/05/26 02:50:12;;;;;;;1.80;0.63;;;16.90;61.40;;;;;;7357599;19;20894;-78
2022/05/26 02:52:59;;;;;;;2.83;1.20;;;16.80;61.70;;;;;;7378380;19;20404;-78
2022/05/26 02:55:46;;;;;;;0.93;0.60;;;16.70;63.00;;;;;;7370856;19;20919;-79
2022/05/26 02:58:24;;;;;;;2.83;0.63;;;16.60;63.60;;;;;;7368972;19;20542;-78
2022/05/26 03:01:06;;;;;;;0.90;0.73;;;16.50;64.10;;;;;;7370249;19;20467;-78
2022/05/26 03:03:45;;;;;;;3.40;0.93;;;16.40;65.40;;;;;;7369928;19;20458;-79
2022/05/26 03:06:23;;;;;;;1.57;0.70;;;16.40;64.70;;;;;;7372896;19;20789;-78
2022/05/26 03:08:57;;;;;;;0.50;0.47;;;16.70;65.30;;;;;;7371276;19;20480;-79
2022/05/26 03:11:27;;;;;;;2.20;0.60;;;16.40;64.40;;;;;;7372183;19;21117;-78
2022/05/26 03:13:58;;;;;;;1.00;0.70;;;16.40;64.80;;;;;;7359450;19;20408;-78
2022/05/26 03:16:27;;;;;;;0.70;0.70;;;16.40;64.50;;;;;;7368489;19;20519;-78
2022/05/26 03:18:58;;;;;;;0.80;0.80;;;16.50;63.80;;;;;;7372804;19;20556;-80
2022/05/26 03:21:27;;;;;;;4.53;0.90;;;16.60;64.50;;;;;;7364888;19;20405;-78
2022/05/26 03:23:59;;;;;;;1.43;0.73;;;16.60;63.70;;;;;;7363521;19;20491;-81
2022/05/26 03:26:29;;;;;;;3.20;0.70;;;16.40;64.50;;;;;;7366401;19;20420;-78
2022/05/26 03:28:58;;;;;;;2.67;0.70;;;16.30;64.50;;;;;;7366385;19;21469;-78
2022/05/26 03:31:30;;;;;;;0.50;0.50;;;16.40;65.00;;;;;;7367852;19;20422;-80
2022/05/26 03:42:10;;;;;;;0.97;0.67;;;16.40;65.50;;;;;;7361447;19;20491;-79
2022/05/26 03:44:39;;;;;;;0.90;0.80;;;16.40;65.20;;;;;;7369722;19;20415;-78
2022/05/26 03:47:09;;;;;;;0.80;0.77;;;16.50;65.20;;;;;;7374171;19;20407;-78
2022/05/26 03:49:39;;;;;;;0.70;0.60;;;16.50;65.10;;;;;;7366328;19;20429;-79
2022/05/26 03:52:11;;;;;;;1.57;0.70;;;16.50;64.90;;;;;;7365089;19;20940;-77
2022/05/26 03:54:43;;;;;;;2.13;0.60;;;16.50;65.20;;;;;;7369718;19;20391;-78
2022/05/26 03:57:13;;;;;;;1.10;0.77;;;16.50;65.30;;;;;;7365150;19;20880;-80
2022/05/26 03:59:43;;;;;;;0.77;0.60;;;16.50;65.70;;;;;;7367682;19;20472;-79
2022/05/26 04:02:15;;;;;;;0.90;0.80;;;16.50;65.80;;;;;;7374351;19;20421;-80
2022/05/26 04:04:44;;;;;;;0.50;0.50;;;16.60;65.00;;;;;;7367775;19;20404;-80
2022/05/26 04:07:14;;;;;;;3.70;1.53;;;16.50;65.20;;;;;;7351344;19;20400;-78
2022/05/26 04:09:51;;;;;;;1.60;0.60;;;16.50;66.10;;;;;;7371064;19;20411;-78
2022/05/26 04:12:20;;;;;;;0.73;0.70;;;16.50;66.40;;;;;;7376481;19;20408;-78
2022/05/26 04:14:50;;;;;;;0.73;0.63;;;16.60;66.30;;;;;;7377301;19;20414;-79
2022/05/26 04:17:22;;;;;;;1.13;0.60;;;16.60;66.30;;;;;;7376420;19;20408;-77
2022/05/26 04:19:54;;;;;;;0.93;0.70;;;16.60;65.30;;;;;;7379996;19;20419;-79
2022/05/26 04:22:26;;;;;;;0.90;0.50;;;16.60;65.60;;;;;;7376965;19;20400;-80
2022/05/26 04:25:00;;;;;;;1.70;0.60;;;16.60;65.40;;;;;;7379977;19;21473;-79
2022/05/26 04:27:32;;;;;;;0.70;0.70;;;16.60;65.60;;;;;;7377553;19;20454;-79
2022/05/26 04:30:03;;;;;;;2.53;1.07;;;16.70;65.80;;;;;;7364622;19;20588;-82
2022/05/26 04:32:33;;;;;;;1.30;0.50;;;16.60;66.30;;;;;;7360847;19;20412;-78
2022/05/26 04:35:02;;;;;;;2.67;0.90;;;16.50;66.00;;;;;;7356395;19;20435;-79
2022/05/26 04:37:32;;;;;;;0.77;0.70;;;16.50;66.50;;;;;;7367665;19;20408;-79
2022/05/26 04:40:05;;;;;;;1.10;0.97;;;16.60;66.80;;;;;;7359032;19;20415;-77
2022/05/26 04:42:34;;;;;;;1.47;0.80;;;16.70;66.20;;;;;;7356874;19;20428;-79
2022/05/26 04:45:09;;;;;;;0.83;0.70;;;16.80;66.30;;;;;;7373794;19;20416;-79
2022/05/26 04:47:41;;;;;;;1.40;0.70;;;16.90;66.10;;;;;;7372763;19;20963;-79
2022/05/26 04:50:14;;;;;;;0.90;0.70;;;16.90;65.80;;;;;;7359602;19;20419;-79
2022/05/26 04:52:44;;;;;;;0.93;0.60;;;16.80;65.80;;;;;;7363294;19;20402;-78
2022/05/26 04:55:20;;;;;;;0.80;0.60;;;16.70;66.60;;;;;;7375627;19;20419;-79
2022/05/26 04:57:52;;;;;;;0.60;0.50;;;16.70;66.20;;;;;;7373295;19;20870;-78
2022/05/26 05:00:25;;;;;;;3.00;0.67;;;16.60;66.60;;;;;;7372031;19;21264;-79
2022/05/26 05:02:57;;;;;;;1.10;1.00;;;16.70;67.00;;;;;;7374396;19;20430;-79
2022/05/26 05:05:26;;;;;;;1.00;0.90;;;16.70;66.60;;;;;;7372524;19;20412;-79
2022/05/26 05:07:58;;;;;;;1.17;0.70;;;17.10;67.00;;;;;;7372806;19;20518;-79
2022/05/26 05:10:30;;;;;;;0.73;0.73;;;16.80;66.60;;;;;;7369864;19;20384;-78
2022/05/26 05:13:01;;;;;;;1.83;0.93;;;16.90;66.10;;;;;;7374619;19;20454;-78
2022/05/26 05:15:35;;;;;;;2.30;0.70;;;17.00;65.80;;;;;;7370563;19;20412;-80
2022/05/26 05:18:05;;;;;;;1.47;0.87;;;17.00;65.40;;;;;;7369049;19;21265;-78
2022/05/26 05:20:36;;;;;;;2.00;0.70;;;16.90;65.30;;;;;;7370069;19;20433;-78
2022/05/26 05:23:11;;;;;;;1.80;0.80;;;17.00;65.10;;;;;;7371813;19;21035;-79
2022/05/26 05:25:47;;;;;;;0.90;0.63;;;17.00;65.00;;;;;;7372425;19;20433;-79
2022/05/26 05:28:24;;;;;;;0.90;0.60;;;17.10;63.70;;;;;;7370578;19;20388;-79
2022/05/26 05:30:59;;;;;;;1.47;0.53;;;17.10;62.70;;;;;;7346503;19;20414;-79
2022/05/26 05:33:35;;;;;;;2.53;1.40;;;17.10;63.10;;;;;;7364170;19;20400;-79
2022/05/26 05:36:07;;;;;;;1.00;0.63;;;17.20;62.80;;;;;;7371711;19;20412;-79
2022/05/26 05:38:39;;;;;;;2.27;0.90;;;17.30;62.70;;;;;;7407640;19;20428;-79
2022/05/26 05:41:12;;;;;;;1.17;0.73;;;17.40;62.10;;;;;;7407382;19;20417;-79
2022/05/26 05:43:42;;;;;;;1.37;0.60;;;17.40;62.00;;;;;;7406927;19;20405;-79
2022/05/26 05:46:12;;;;;;;0.80;0.60;;;17.40;62.40;;;;;;7403600;19;20409;-79
2022/05/26 05:48:43;;;;;;;1.90;0.77;;;17.50;62.20;;;;;;7414015;19;20399;-79
2022/05/26 05:51:13;;;;;;;2.97;0.83;;;17.60;61.80;;;;;;7404739;19;20440;-79
2022/05/26 05:53:44;;;;;;;1.00;0.70;;;17.70;61.50;;;;;;7387621;19;21291;-79
2022/05/26 05:56:16;;;;;;;1.57;0.93;;;17.80;61.10;;;;;;7374991;19;20428;-78
2022/05/26 05:58:45;;;;;;;0.60;0.60;;;17.90;60.20;;;;;;7383166;19;20433;-78
2022/05/26 06:01:15;;;;;;;1.57;0.60;;;17.90;60.40;;;;;;7373735;19;20942;-80
2022/05/26 06:03:44;;;;;;;0.70;0.70;;;18.00;60.00;;;;;;7377651;19;20401;-80
2022/05/26 06:06:16;;;;;;;1.70;1.60;;;18.10;59.30;;;;;;7378107;19;20409;-79
2022/05/26 06:08:46;;;;;;;2.33;0.53;;;18.40;59.40;;;;;;7369968;19;20415;-80
2022/05/26 06:11:18;;;;;;;1.63;0.60;;;18.50;58.40;;;;;;7371424;19;20436;-80
2022/05/26 06:13:47;;;;;;;1.93;0.70;;;18.60;58.00;;;;;;7375126;19;20424;-79
2022/05/26 06:16:17;;;;;;;1.67;0.90;;;18.70;57.50;;;;;;7367351;19;20404;-79
2022/05/26 06:18:50;;;;;;;0.93;0.93;;;18.90;57.50;;;;;;7362963;19;20412;-81
2022/05/26 06:21:22;;;;;;;1.53;0.80;;;18.90;57.40;;;;;;7367597;19;20404;-80
2022/05/26 06:23:56;;;;;;;1.03;0.60;;;19.00;57.20;;;;;;7373242;19;20931;-80
2022/05/26 06:26:32;;;;;;;1.17;0.70;;;19.20;57.00;;;;;;7376731;19;20431;-80
2022/05/26 06:37:13;;;;;;;1.00;0.70;;;18.80;56.50;;;;;;7373595;19;20424;-81
2022/05/26 06:37:17;;;;;;;2.20;0.70;;;19.00;57.20;;;;;;7377318;19;20899;-80
2022/05/26 06:39:47;;;;;;;0.87;0.70;;;19.10;57.20;;;;;;7370484;19;20413;-79
2022/05/26 06:42:19;;;;;;;2.10;0.70;;;18.90;57.30;;;;;;7375143;19;20408;-79
2022/05/26 06:44:49;;;;;;;3.73;0.80;;;19.00;57.50;;;;;;7370191;19;20416;-80
2022/05/26 06:47:21;;;;;;;1.20;0.60;;;19.10;57.20;;;;;;7355991;19;20388;-79
2022/05/26 06:49:51;;;;;;;1.30;1.20;;;19.20;57.00;;;;;;7369462;19;21459;-80
2022/05/26 06:52:24;;;;;;;1.40;0.70;;;19.30;57.00;;;;;;7373260;19;20463;-80
2022/05/26 06:54:54;;;;;;;1.67;0.63;;;19.60;56.80;;;;;;7374152;19;20413;-80
2022/05/26 06:57:28;;;;;;;3.40;1.10;;;19.30;56.40;;;;;;7366551;19;20459;-80
2022/05/26 06:59:58;;;;;;;1.03;0.93;;;19.30;56.80;;;;;;7371481;19;20375;-80
2022/05/26 07:02:28;;;;;;;1.73;0.70;;;19.50;57.10;;;;;;7367445;19;20409;-80
2022/05/26 07:04:58;;;;;;;1.93;0.70;;;19.50;56.40;;;;;;7373232;19;20404;-80
2022/05/26 07:07:28;;;;;;;2.13;0.90;;;19.60;56.20;;;;;;7368661;19;20475;-80
2022/05/26 07:09:58;;;;;;;0.87;0.60;;;19.80;56.00;;;;;;7370278;19;20951;-79
2022/05/26 07:12:30;;;;;;;2.20;0.80;;;19.80;56.00;;;;;;7364812;19;20424;-78
2022/05/26 07:14:59;;;;;;;1.00;0.77;;;19.90;56.00;;;;;;7366885;19;20441;-79
2022/05/26 07:17:31;;;;;;;1.03;0.67;;;20.00;55.40;;;;;;7373811;19;20380;-79
2022/05/26 07:20:01;;;;;;;1.70;0.63;;;20.00;55.40;;;;;;7363558;19;21050;-78
2022/05/26 07:22:33;;;;;;;4.07;0.60;;;20.10;54.90;;;;;;7370564;19;20413;-76
2022/05/26 07:25:06;;;;;;;2.20;0.70;;;20.30;54.30;;;;;;7371467;19;20376;-78
2022/05/26 07:27:39;;;;;;;3.10;0.90;;;20.40;54.20;;;;;;7368140;19;21299;-75
2022/05/26 07:30:10;;;;;;;1.53;0.77;;;20.40;54.20;;;;;;7357588;19;20412;-77
2022/05/26 07:32:39;;;;;;;1.60;0.87;;;20.30;53.90;;;;;;7367726;19;20412;-77
2022/05/26 07:35:11;;;;;;;2.40;1.13;;;20.30;54.40;;;;;;7349794;19;20486;-75
2022/05/26 07:43:09;;;;;;;1.07;0.60;;;20.80;53.10;;;;;;7373947;19;20924;-77
2022/05/26 07:45:39;;;;;;;2.20;0.67;;;21.10;52.30;;;;;;7372173;19;20415;-75
2022/05/26 07:48:09;;;;;;;5.23;0.80;;;21.00;52.20;;;;;;7377350;19;20412;-75
2022/05/26 07:50:39;;;;;;;1.00;0.70;;;21.20;51.70;;;;;;7379780;19;20484;-75
2022/05/26 07:53:11;;;;;;;1.67;0.60;;;21.20;51.30;;;;;;7377480;19;20435;-75
2022/05/26 07:55:42;;;;;;;1.17;0.90;;;21.40;51.60;;;;;;7372075;19;20407;-76
2022/05/26 07:58:15;;;;;;;2.90;1.10;;;21.60;51.30;;;;;;7370010;19;20419;-75
2022/05/26 08:00:45;;;;;;;0.93;0.60;;;21.80;50.00;;;;;;7375687;19;20427;-77
2022/05/26 08:03:15;;;;;;;1.57;0.70;;;21.80;50.30;;;;;;7377519;19;20892;-76
2022/05/26 08:05:44;;;;;;;1.63;0.90;;;21.90;50.20;;;;;;7376505;19;20981;-77
2022/05/26 08:08:17;;;;;;;0.50;0.40;;;22.00;50.10;;;;;;7367499;19;20412;-76
2022/05/26 08:10:51;;;;;;;1.60;0.50;;;22.20;49.80;;;;;;7366970;19;20407;-76
2022/05/26 08:13:23;;;;;;;1.33;1.17;;;22.20;49.00;;;;;;7368717;19;21627;-78
2022/05/26 08:15:53;;;;;;;4.30;1.00;;;22.20;49.30;;;;;;7371921;19;20906;-78
2022/05/26 08:18:22;;;;;;;1.20;0.73;;;22.30;49.10;;;;;;7375577;19;20423;-78
2022/05/26 08:20:52;;;;;;;1.20;1.07;;;22.40;49.00;;;;;;7373907;19;20404;-77
2022/05/26 08:23:25;;;;;;;1.50;0.70;;;22.40;48.90;;;;;;7372343;19;20364;-77
2022/05/26 08:25:55;;;;;;;1.20;0.60;;;22.40;48.50;;;;;;7369949;19;20409;-77
2022/05/26 08:28:27;;;;;;;2.00;0.87;;;22.50;48.60;;;;;;7366032;19;20412;-76
2022/05/26 08:30:56;;;;;;;1.93;0.80;;;22.40;48.60;;;;;;7368229;19;20804;-76
2022/05/26 08:33:26;;;;;;;3.20;0.87;;;22.30;48.50;;;;;;7373640;19;20995;-76
2022/05/26 08:36:03;;;;;;;0.87;0.60;;;22.20;48.70;;;;;;7378454;19;20875;-76
2022/05/26 08:38:32;;;;;;;1.20;0.67;;;22.10;49.20;;;;;;7373817;19;22895;-80
2022/05/26 08:41:02;;;;;;;0.97;0.50;;;21.90;49.30;;;;;;7392207;19;20468;-79
2022/05/26 08:43:39;;;;;;;1.70;0.80;;;22.10;49.70;;;;;;7402437;19;20408;-78
2022/05/26 08:46:13;;;;;;;1.10;0.70;;;22.20;49.10;;;;;;7399601;19;20415;-78
2022/05/26 08:48:52;;;;;;;1.57;0.80;;;22.40;48.80;;;;;;7401221;19;20389;-79
2022/05/26 08:51:29;;;;;;;0.70;0.50;;;22.50;49.00;;;;;;7393580;19;20899;-79
2022/05/26 08:54:00;;;;;;;0.97;0.80;;;22.60;48.40;;;;;;7383967;19;20411;-79
2022/05/26 08:56:30;;;;;;;1.23;0.50;;;22.60;48.30;;;;;;7382765;19;21313;-78
2022/05/26 08:59:08;;;;;;;0.80;0.60;;;22.50;48.20;;;;;;7380151;19;20977;-78
2022/05/26 09:01:37;;;;;;;1.13;0.70;;;22.30;49.10;;;;;;7378728;19;20484;-78
2022/05/26 09:04:10;;;;;;;0.60;0.53;;;22.20;49.20;;;;;;7377614;19;21259;-77
2022/05/26 09:14:59;;;;;;;1.43;0.60;;;22.60;48.40;;;;;;7377510;19;20779;-77
2022/05/26 09:17:31;;;;;;;1.17;0.80;;;22.40;48.20;;;;;;7375851;19;20995;-77
2022/05/26 09:20:05;;;;;;;1.70;0.70;;;22.30;49.10;;;;;;7371810;19;20411;-78
2022/05/26 09:22:44;;;;;;;1.03;0.60;;;22.40;48.40;;;;;;7376517;19;20504;-78
2022/05/26 09:25:32;;;;;;;0.60;0.60;;;22.70;48.40;;;;;;7377392;19;20424;-78
2022/05/26 09:28:02;;;;;;;1.90;0.53;;;22.90;48.40;;;;;;7375500;19;20424;-78
2022/05/26 09:30:35;;;;;;;2.13;0.70;;;23.30;47.80;;;;;;7379108;19;20432;-79
2022/05/26 09:33:20;;;;;;;1.67;0.93;;;23.40;47.50;;;;;;7379016;19;20380;-78
2022/05/26 09:35:49;;;;;;;1.57;0.70;;;23.60;46.70;;;;;;7374131;19;20548;-78
2022/05/26 09:38:21;;;;;;;1.73;0.77;;;23.30;46.70;;;;;;7374595;19;20411;-78
2022/05/26 09:40:51;;;;;;;1.13;0.63;;;23.00;47.10;;;;;;7373733;19;21011;-79
2022/05/26 09:43:26;;;;;;;2.70;0.80;;;22.80;47.70;;;;;;7374795;19;20766;-79
2022/05/26 09:46:02;;;;;;;0.83;0.60;;;22.60;47.90;;;;;;7377511;19;21634;-79
2022/05/26 09:48:35;;;;;;;1.67;1.07;;;22.50;48.00;;;;;;7373628;19;20930;-78
2022/05/26 09:51:14;;;;;;;0.97;0.80;;;22.30;48.60;;;;;;7376823;19;20450;-78
2022/05/26 09:53:46;;;;;;;1.03;0.60;;;22.10;48.90;;;;;;7376830;19;21090;-78
2022/05/26 09:56:30;;;;;;;1.00;0.60;;;21.90;49.30;;;;;;7373639;19;20423;-78
2022/05/26 09:59:02;;;;;;;1.97;0.70;;;21.80;50.40;;;;;;7374795;19;20407;-78
2022/05/26 10:01:43;;;;;;;1.40;0.80;;;21.80;49.90;;;;;;7374345;19;20768;-78
2022/05/26 10:04:27;;;;;;;3.60;0.80;;;21.80;49.80;;;;;;7377235;19;20497;-78
2022/05/26 10:07:02;;;;;;;2.17;0.87;;;21.70;49.70;;;;;;7373482;19;20422;-78
2022/05/26 10:09:40;;;;;;;0.90;0.70;;;21.70;49.90;;;;;;7375110;19;20412;-78
2022/05/26 10:12:20;;;;;;;1.33;0.73;;;21.50;50.20;;;;;;7371253;19;20943;-78
2022/05/26 10:15:04;;;;;;;2.47;0.70;;;21.40;50.50;;;;;;7369053;19;20426;-78
2022/05/26 10:17:51;;;;;;;4.70;0.87;;;21.40;50.60;;;;;;7376087;19;20412;-78
2022/05/26 10:20:36;;;;;;;1.03;0.80;;;21.40;50.70;;;;;;7372991;19;20975;-79
2022/05/26 10:23:51;;;;;;;1.57;0.97;;;21.40;50.20;;;;;;7373532;19;20450;-78
2022/05/26 10:26:31;;;;;;;1.63;1.10;;;21.70;50.20;;;;;;7372283;19;20424;-78
2022/05/26 10:29:30;;;;;;;4.27;1.27;;;22.00;49.70;;;;;;7374054;19;20408;-79
2022/05/26 10:32:11;;;;;;;1.43;0.97;;;22.20;49.40;;;;;;7371540;19;20363;-78
2022/05/26 10:35:16;;;;;;;0.97;0.50;;;22.20;49.20;;;;;;7373829;19;20440;-78
2022/05/26 10:38:10;;;;;;;0.87;0.50;;;22.30;49.50;;;;;;7375275;19;21321;-78
2022/05/26 10:40:49;;;;;;;0.87;0.60;;;22.40;49.90;;;;;;7372528;19;20409;-77
2022/05/26 10:43:23;;;;;;;1.47;0.70;;;22.40;49.30;;;;;;7372443;19;20419;-77
2022/05/26 10:45:54;;;;;;;1.90;0.70;;;22.50;49.50;;;;;;7372555;19;20785;-78
2022/05/26 10:48:32;;;;;;;1.70;0.90;;;22.60;49.10;;;;;;7372103;19;20760;-77
2022/05/26 10:51:05;;;;;;;1.53;0.67;;;22.70;49.00;;;;;;7374790;19;21308;-77
2022/05/26 10:53:44;;;;;;;0.87;0.50;;;22.70;48.50;;;;;;7375514;19;20404;-78
2022/05/26 10:56:24;;;;;;;0.77;0.63;;;22.50;48.80;;;;;;7365526;19;20436;-77
2022/05/26 10:59:02;;;;;;;1.40;0.70;;;22.20;48.60;;;;;;7370906;19;20438;-78
2022/05/26 11:01:36;;;;;;;0.80;0.53;;;22.10;49.20;;;;;;7373762;19;20427;-78
2022/05/26 11:04:17;;;;;;;1.20;0.70;;;22.00;49.60;;;;;;7373540;19;20974;-79
2022/05/26 11:06:51;;;;;;;0.70;0.70;;;21.80;50.10;;;;;;7373355;19;20964;-79
2022/05/26 11:09:32;;;;;;;1.53;0.97;;;21.70;50.50;;;;;;7369899;19;20408;-79
2022/05/26 11:12:04;;;;;;;1.43;1.00;;;21.70;50.40;;;;;;7373415;19;20372;-79
2022/05/26 11:17:33;;;;;;;0.90;0.80;;;21.60;50.40;;;;;;7366209;19;20829;-78
2022/05/26 11:20:07;;;;;;;1.37;0.70;;;21.70;50.80;;;;;;7372777;19;20409;-78
2022/05/26 11:22:37;;;;;;;1.23;0.80;;;21.90;50.30;;;;;;7373218;19;21054;-78
2022/05/26 11:25:10;;;;;;;0.90;0.67;;;22.00;50.20;;;;;;7372327;19;20408;-79
2022/05/26 11:27:47;;;;;;;2.50;0.77;;;22.20;50.20;;;;;;7408247;19;20432;-79
2022/05/26 11:36:10;;;;;;;2.47;1.20;;;22.30;49.00;;;;;;7413802;19;20392;-79
2022/05/26 11:38:45;;;;;;;1.40;1.20;;;22.20;48.90;;;;;;7414211;19;20467;-79
2022/05/26 11:41:28;;;;;;;2.43;1.23;;;22.10;49.50;;;;;;7394208;19;20411;-79
2022/05/26 11:44:05;;;;;;;1.40;0.73;;;22.10;49.70;;;;;;7386247;19;20400;-79
2022/05/26 11:46:57;;;;;;;1.00;0.80;;;22.20;49.90;;;;;;7379367;19;20925;-79
2022/05/26 11:49:56;;;;;;;1.50;1.03;;;22.50;49.50;;;;;;7375464;19;20424;-79
2022/05/26 11:52:27;;;;;;;1.50;1.03;;;22.80;49.00;;;;;;7376339;19;20396;-79
2022/05/26 11:55:11;;;;;;;1.73;0.93;;;23.00;48.70;;;;;;7373313;19;20412;-79
2022/05/26 11:57:53;;;;;;;1.47;0.90;;;23.10;48.30;;;;;;7372453;19;20452;-79
2022/05/26 12:00:40;;;;;;;2.30;1.07;;;23.20;48.50;;;;;;7379634;19;20918;-79
2022/05/26 12:03:30;;;;;;;2.37;0.90;;;23.30;48.30;;;;;;7379285;19;20483;-77
2022/05/26 12:06:14;;;;;;;1.73;1.03;;;23.40;48.20;;;;;;7381559;19;21250;-78
2022/05/26 12:09:00;;;;;;;1.50;1.10;;;23.40;48.10;;;;;;7378600;19;20416;-78
2022/05/26 12:11:59;;;;;;;1.00;0.70;;;23.40;47.30;;;;;;7378693;19;20813;-78
2022/05/26 12:14:35;;;;;;;2.37;0.70;;;23.00;47.70;;;;;;7381988;19;20850;-78
2022/05/26 12:17:33;;;;;;;1.70;0.80;;;22.80;48.00;;;;;;7379261;19;20404;-78
2022/05/26 12:20:05;;;;;;;1.80;0.77;;;22.60;48.40;;;;;;7378961;19;20383;-79
2022/05/26 12:22:37;;;;;;;1.53;0.83;;;22.50;48.90;;;;;;7375924;19;20412;-78
2022/05/26 12:25:21;;;;;;;1.47;0.90;;;22.30;49.50;;;;;;7378552;19;20384;-79
2022/05/26 12:27:59;;;;;;;2.27;1.00;;;22.10;50.00;;;;;;7377037;19;20408;-78
2022/05/26 12:31:15;;;;;;;1.47;0.70;;;21.90;50.70;;;;;;7377701;19;20364;-78
2022/05/26 12:34:14;;;;;;;1.00;0.70;;;21.60;51.30;;;;;;7377521;19;20395;-78
2022/05/26 12:37:02;;;;;;;1.57;0.87;;;21.50;51.70;;;;;;7378756;19;20498;-78
2022/05/26 12:40:04;;;;;;;1.47;0.77;;;21.50;52.00;;;;;;7374663;19;20408;-78
2022/05/26 12:43:01;;;;;;;1.10;1.00;;;21.60;52.30;;;;;;7378489;19;20427;-78
2022/05/26 12:45:39;;;;;;;1.53;0.60;;;21.70;52.50;;;;;;7375995;19;20473;-78
2022/05/26 12:48:30;;;;;;;2.17;1.27;;;21.90;52.60;;;;;;7378606;19;20481;-79
2022/05/26 12:51:11;;;;;;;2.50;0.90;;;22.20;52.00;;;;;;7377546;19;20416;-78
2022/05/26 12:53:54;;;;;;;2.73;1.10;;;22.50;51.30;;;;;;7376974;19;20944;-78
2022/05/26 12:56:31;;;;;;;4.80;1.23;;;23.30;50.70;;;;;;7376718;19;21136;-79
2022/05/26 12:59:03;;;;;;;1.90;0.77;;;24.60;47.70;;;;;;7377349;19;20416;-79
2022/05/26 13:01:33;;;;;;;3.43;1.17;;;25.10;46.50;;;;;;7374896;19;21000;-79
2022/05/26 13:04:08;;;;;;;1.80;1.00;;;25.30;45.70;;;;;;7372256;19;20420;-79
2022/05/26 13:06:46;;;;;;;3.47;0.90;;;25.40;45.40;;;;;;7374232;19;20396;-79
2022/05/26 13:09:18;;;;;;;2.57;1.00;;;25.60;45.80;;;;;;7376331;19;20404;-80
2022/05/26 13:11:52;;;;;;;1.40;0.90;;;26.20;43.40;;;;;;7370018;19;20525;-80
2022/05/26 13:14:33;;;;;;;3.60;1.20;;;26.80;42.80;;;;;;7375401;19;20403;-80
2022/05/26 13:17:04;;;;;;;2.00;0.63;;;26.50;43.00;;;;;;7352645;19;20424;-80
2022/05/26 13:19:34;;;;;;;2.03;0.97;;;25.70;44.20;;;;;;7375873;19;20915;-77
2022/05/26 13:22:14;;;;;;;0.80;0.80;;;25.20;45.10;;;;;;7374221;19;20400;-77
2022/05/26 13:24:53;;;;;;;1.63;1.07;;;24.90;45.80;;;;;;7375455;19;20416;-78
2022/05/26 13:27:23;;;;;;;1.50;0.93;;;24.40;46.50;;;;;;7376317;19;20446;-78
2022/05/26 13:33:07;;;;;;;1.40;1.10;;;23.90;47.80;;;;;;7379196;19;21153;-78
2022/05/26 13:35:33;;;;;;;2.17;1.47;;;23.50;49.60;;;;;;7375001;19;21027;-77
2022/05/26 13:38:25;;;;;;;1.70;1.30;;;23.40;50.00;;;;;;7371583;19;20479;-78
2022/05/26 13:40:54;;;;;;;2.60;1.60;;;23.30;50.30;;;;;;7373611;19;20426;-78
2022/05/26 13:43:27;;;;;;;1.33;0.80;;;23.20;50.40;;;;;;7365838;19;20433;-78
2022/05/26 13:45:57;;;;;;;1.80;1.27;;;23.10;50.70;;;;;;7372509;19;20709;-78
2022/05/26 13:48:33;;;;;;;2.60;1.23;;;23.10;50.90;;;;;;7376162;19;20939;-78
2022/05/26 13:51:09;;;;;;;1.67;1.37;;;23.00;51.00;;;;;;7373223;19;20746;-78
2022/05/26 13:53:46;;;;;;;1.63;1.30;;;23.00;51.10;;;;;;7376190;19;20380;-78
2022/05/26 13:56:25;;;;;;;3.50;1.10;;;23.10;51.20;;;;;;7365064;19;20955;-78
2022/05/26 13:58:59;;;;;;;4.53;2.00;;;23.10;50.90;;;;;;7375865;19;20491;-78
2022/05/26 14:01:30;;;;;;;5.00;2.10;;;23.20;51.20;;;;;;7373219;19;20405;-79
2022/05/26 14:04:02;;;;;;;1.17;0.90;;;23.30;51.20;;;;;;7372874;19;20400;-78
2022/05/26 14:06:35;;;;;;;3.90;0.90;;;23.30;50.50;;;;;;7371977;19;20416;-78
2022/05/26 14:09:32;;;;;;;1.90;1.30;;;23.10;50.70;;;;;;7375577;19;20396;-77
2022/05/26 14:12:07;;;;;;;1.60;1.00;;;23.20;51.00;;;;;;7375291;19;20424;-79